Time;durP1;ratioP1;P1;durP2;ratioP2;P2;SDS_P1;SDS_P2;PMS_P1;PMS_P2;Temp;Humidity;BMP_temperature;BMP_pressure;BME280_temperature;BME280_humidity;BME280_pressure;Samples;Min_cycle;Max_cycle;Signal;HPM_P1;HPM_P2
2022/02/01 00:00:23;;;;;;;14.33;2.70;;;5.60;99.90;;;;;;5094416;23;20149;-95
2022/02/01 00:02:43;;;;;;;16.67;2.97;;;5.70;99.90;;;;;;5070237;23;20177;-92
2022/02/01 00:07:31;;;;;;;19.63;2.70;;;5.60;99.90;;;;;;5030637;23;20153;-94
2022/02/01 00:11:53;;;;;;;24.23;3.53;;;5.60;99.90;;;;;;5094691;23;20145;-95
2022/02/01 00:14:14;;;;;;;22.83;3.10;;;5.40;99.90;;;;;;5070187;23;20177;-94
2022/02/01 00:33:05;;;;;;;17.23;2.70;;;5.10;99.90;;;;;;5094846;23;20149;-92
2022/02/01 00:36:48;;;;;;;18.43;2.53;;;4.50;99.90;;;;;;5094853;23;20149;-93
2022/02/01 00:41:03;;;;;;;17.07;3.07;;;4.30;99.90;;;;;;5094742;23;20638;-96
2022/02/01 00:43:06;;;;;;;16.17;2.57;;;4.20;99.90;;;;;;5070168;23;20233;-94
2022/02/01 00:45:09;;;;;;;13.97;2.43;;;4.20;99.90;;;;;;5069898;23;20185;-92
2022/02/01 00:47:11;;;;;;;15.73;2.83;;;4.20;99.90;;;;;;5069697;23;20162;-93
2022/02/01 00:49:11;;;;;;;25.57;2.97;;;4.20;99.90;;;;;;5070154;23;20196;-94
2022/02/01 00:51:13;;;;;;;17.70;3.03;;;4.20;99.90;;;;;;5070218;23;20149;-94
2022/02/01 00:53:13;;;;;;;19.03;3.10;;;4.00;99.90;;;;;;5069916;23;20177;-94
2022/02/01 00:55:14;;;;;;;12.50;2.80;;;4.00;99.90;;;;;;5094416;23;20207;-94
2022/02/01 00:57:15;;;;;;;16.27;2.93;;;3.90;99.90;;;;;;5094160;23;20153;-94
2022/02/01 00:59:16;;;;;;;22.73;3.10;;;3.90;99.90;;;;;;5069973;23;20149;-96
2022/02/01 01:01:17;;;;;;;21.23;3.47;;;4.00;99.90;;;;;;5069860;23;20157;-93
2022/02/01 01:03:17;;;;;;;20.00;2.60;;;4.10;99.90;;;;;;5069799;23;20237;-93
2022/02/01 01:05:18;;;;;;;15.90;3.10;;;4.20;99.90;;;;;;5094240;23;20192;-93
2022/02/01 01:07:19;;;;;;;19.50;2.83;;;4.30;99.90;;;;;;5070225;23;20154;-95
2022/02/01 01:09:19;;;;;;;22.70;3.07;;;4.30;99.90;;;;;;5093747;23;20522;-93
2022/02/01 01:11:21;;;;;;;17.30;2.67;;;4.20;99.90;;;;;;5070045;23;20571;-93
2022/02/01 01:15:37;;;;;;;20.63;2.87;;;4.20;99.90;;;;;;5094113;23;20480;-91
2022/02/01 01:18:04;;;;;;;19.97;3.60;;;4.10;99.90;;;;;;5069513;23;20153;-95
2022/02/01 01:45:36;;;;;;;17.43;2.57;;;4.20;99.90;;;;;;5093862;23;20220;-94
2022/02/01 01:54:35;;;;;;;20.93;2.27;;;4.00;99.90;;;;;;5093905;23;20145;-92
2022/02/01 01:56:36;;;;;;;14.33;2.37;;;4.00;99.90;;;;;;5069320;23;20161;-93
2022/02/01 01:58:37;;;;;;;16.07;2.33;;;4.00;99.90;;;;;;5069188;23;20481;-93
2022/02/01 02:01:11;;;;;;;14.40;2.20;;;4.00;99.90;;;;;;5069361;23;20240;-94
2022/02/01 02:03:12;;;;;;;10.47;1.73;;;4.20;99.90;;;;;;5069210;23;20173;-94
2022/02/01 02:05:12;;;;;;;9.57;1.80;;;4.30;99.90;;;;;;5093705;23;20215;-93
2022/02/01 02:07:13;;;;;;;17.23;2.30;;;4.30;99.90;;;;;;5069385;23;20226;-93
2022/02/01 02:09:14;;;;;;;11.57;2.00;;;4.30;99.90;;;;;;5069404;23;20557;-94
2022/02/01 02:11:28;;;;;;;14.03;1.90;;;4.30;99.90;;;;;;5069571;23;20150;-93
2022/02/01 02:15:40;;;;;;;18.17;2.23;;;4.20;99.90;;;;;;5093881;23;20163;-93
2022/02/01 02:17:40;;;;;;;16.83;1.90;;;4.20;99.90;;;;;;5093442;23;20149;-93
2022/02/01 02:19:41;;;;;;;16.20;2.10;;;4.20;99.90;;;;;;5069438;23;20164;-93
2022/02/01 02:21:51;;;;;;;15.87;2.47;;;4.20;99.90;;;;;;5069340;23;20651;-94
2022/02/01 02:23:52;;;;;;;17.83;2.23;;;4.10;99.90;;;;;;5068985;23;20193;-94
2022/02/01 02:25:53;;;;;;;13.90;2.67;;;4.10;99.90;;;;;;5069153;23;20209;-94
2022/02/01 02:27:54;;;;;;;13.93;1.97;;;4.10;99.90;;;;;;5069168;23;20244;-93
2022/02/01 02:29:55;;;;;;;18.83;1.97;;;4.10;99.90;;;;;;5069178;23;20161;-94
2022/02/01 02:31:56;;;;;;;17.17;2.47;;;4.10;99.90;;;;;;5068724;23;20154;-93
2022/02/01 02:34:02;;;;;;;15.67;2.23;;;4.10;99.90;;;;;;5069148;23;20230;-94
2022/02/01 02:36:14;;;;;;;19.27;2.23;;;4.00;99.90;;;;;;5093335;23;20172;-92
2022/02/01 02:38:21;;;;;;;14.20;2.20;;;4.10;99.90;;;;;;5094168;23;20153;-93
2022/02/01 02:40:42;;;;;;;19.27;2.50;;;4.10;99.90;;;;;;5069017;23;20189;-94
2022/02/01 02:45:09;;;;;;;27.03;2.33;;;4.20;99.90;;;;;;5093551;23;20607;-94
2022/02/01 02:47:09;;;;;;;16.50;2.90;;;4.20;99.90;;;;;;5069027;23;20160;-93
2022/02/01 02:49:15;;;;;;;15.43;2.27;;;4.20;99.90;;;;;;5068958;23;20207;-96
2022/02/01 02:51:17;;;;;;;22.03;2.67;;;4.30;99.90;;;;;;5069621;23;20169;-94
2022/02/01 02:53:19;;;;;;;16.77;2.40;;;4.30;99.90;;;;;;5069133;23;20170;-95
2022/02/01 02:55:20;;;;;;;19.70;3.30;;;4.40;99.90;;;;;;5093691;23;20149;-94
2022/02/01 02:57:20;;;;;;;21.63;2.83;;;4.40;99.90;;;;;;5069279;23;20157;-95
2022/02/01 02:59:23;;;;;;;18.47;2.67;;;4.50;99.90;;;;;;5069323;23;20193;-93
2022/02/01 03:01:24;;;;;;;16.60;2.90;;;4.40;99.90;;;;;;5069311;23;20154;-93
2022/02/01 03:03:25;;;;;;;16.33;2.93;;;4.40;99.90;;;;;;5069135;23;20176;-94
2022/02/01 03:05:25;;;;;;;17.53;2.67;;;4.50;99.90;;;;;;5069284;23;20216;-93
2022/02/01 03:07:26;;;;;;;22.40;2.93;;;4.50;99.90;;;;;;5093317;23;20153;-93
2022/02/01 03:09:27;;;;;;;17.80;2.80;;;4.50;99.90;;;;;;5069299;23;20150;-94
2022/02/01 03:11:28;;;;;;;17.07;2.70;;;4.50;99.90;;;;;;5069099;23;20193;-94
2022/02/01 03:13:31;;;;;;;21.40;3.30;;;4.50;99.90;;;;;;5068513;23;20169;-93
2022/02/01 03:19:57;;;;;;;19.17;3.50;;;4.40;99.90;;;;;;5093780;23;20303;-92
2022/02/01 03:22:01;;;;;;;16.37;3.43;;;4.30;99.90;;;;;;5069097;23;20157;-94
2022/02/01 03:24:02;;;;;;;18.03;3.80;;;4.30;99.90;;;;;;5093426;23;20149;-94
2022/02/01 03:26:03;;;;;;;24.17;3.63;;;4.40;99.90;;;;;;5068977;23;20197;-93
2022/02/01 03:28:04;;;;;;;20.37;3.20;;;4.50;99.90;;;;;;5093393;23;20622;-95
2022/02/01 03:30:05;;;;;;;20.07;3.27;;;4.50;99.90;;;;;;5069018;23;20156;-94
2022/02/01 03:32:07;;;;;;;30.13;4.27;;;4.40;99.90;;;;;;5092975;23;20150;-93
2022/02/01 03:34:07;;;;;;;24.80;4.00;;;4.40;99.90;;;;;;5093579;23;20228;-93
2022/02/01 03:36:08;;;;;;;23.73;4.20;;;4.40;99.90;;;;;;5068929;23;20158;-93
2022/02/01 03:38:09;;;;;;;29.90;4.50;;;4.40;99.90;;;;;;5068928;23;20150;-93
2022/02/01 03:40:15;;;;;;;23.27;4.63;;;4.60;99.90;;;;;;5068876;23;20157;-94
2022/02/01 03:42:16;;;;;;;24.20;4.13;;;4.60;99.90;;;;;;5068552;23;20150;-93
2022/02/01 03:44:16;;;;;;;23.83;4.70;;;4.70;99.90;;;;;;5068604;23;20149;-94
2022/02/01 03:46:17;;;;;;;23.63;5.17;;;4.70;99.90;;;;;;5068721;23;20180;-94
2022/02/01 03:48:18;;;;;;;25.73;4.63;;;4.60;99.90;;;;;;5093259;23;20149;-93
2022/02/01 03:50:19;;;;;;;23.70;4.90;;;4.50;99.90;;;;;;5093529;23;20172;-93
2022/02/01 03:52:20;;;;;;;19.60;4.53;;;4.50;99.90;;;;;;5068850;23;20588;-95
2022/02/01 03:54:21;;;;;;;27.10;5.30;;;4.70;99.90;;;;;;5068722;23;20147;-92
2022/02/01 03:56:21;;;;;;;27.67;5.50;;;4.80;99.90;;;;;;5068803;23;20157;-92
2022/02/01 03:58:22;;;;;;;20.27;4.60;;;4.90;99.90;;;;;;5093462;23;20145;-92
2022/02/01 04:00:23;;;;;;;26.63;5.23;;;5.00;99.90;;;;;;5070307;23;20248;-93
2022/02/01 04:02:24;;;;;;;22.43;5.30;;;5.20;99.90;;;;;;5069977;23;20201;-93
2022/02/01 04:04:27;;;;;;;24.07;4.83;;;5.30;99.90;;;;;;5070289;23;20185;-92
2022/02/01 04:06:28;;;;;;;25.30;5.57;;;5.40;99.90;;;;;;5070424;23;20161;-94
2022/02/01 04:08:29;;;;;;;28.77;4.70;;;5.40;99.90;;;;;;5094885;23;20153;-93
2022/02/01 04:10:29;;;;;;;22.03;5.57;;;5.40;99.90;;;;;;5070438;23;20157;-93
2022/02/01 04:12:31;;;;;;;25.77;5.40;;;5.50;99.90;;;;;;5095077;23;20183;-93
2022/02/01 04:14:33;;;;;;;25.07;5.17;;;5.50;99.90;;;;;;5070237;23;20677;-93
2022/02/01 04:16:34;;;;;;;26.17;5.60;;;5.40;99.90;;;;;;5070316;23;20146;-93
2022/02/01 04:18:35;;;;;;;24.27;5.17;;;5.30;99.90;;;;;;5095042;23;20189;-93
2022/02/01 04:20:36;;;;;;;26.03;5.77;;;5.40;99.90;;;;;;5070263;23;20551;-95
2022/02/01 04:22:37;;;;;;;24.03;5.70;;;5.20;99.90;;;;;;5069990;23;20184;-92
2022/02/01 04:24:41;;;;;;;22.17;5.07;;;5.30;99.90;;;;;;5094426;23;20259;-94
2022/02/01 04:26:41;;;;;;;25.97;5.57;;;5.30;99.90;;;;;;5069943;23;20157;-93
2022/02/01 04:28:42;;;;;;;21.77;5.77;;;5.30;99.90;;;;;;5094293;23;20172;-93
2022/02/01 04:30:43;;;;;;;23.83;5.27;;;5.10;99.90;;;;;;5094509;23;20149;-93
2022/02/01 04:32:49;;;;;;;31.40;6.13;;;5.00;99.90;;;;;;5069931;23;20176;-93
2022/02/01 04:34:58;;;;;;;19.90;4.87;;;5.10;99.90;;;;;;5070148;23;20671;-94
2022/02/01 04:36:59;;;;;;;22.27;4.70;;;5.10;99.90;;;;;;5070208;23;20208;-94
2022/02/01 04:39:00;;;;;;;28.50;5.50;;;5.20;99.90;;;;;;5094378;23;20153;-93
2022/02/01 04:41:01;;;;;;;30.17;6.20;;;5.20;99.90;;;;;;5070267;23;20607;-93
2022/02/01 04:43:05;;;;;;;24.73;5.37;;;5.30;99.90;;;;;;5070035;23;20177;-94
2022/02/01 04:45:09;;;;;;;24.97;5.27;;;5.30;99.90;;;;;;5094478;23;20196;-93
2022/02/01 04:47:10;;;;;;;25.47;5.40;;;5.40;99.90;;;;;;5069749;23;20257;-95
2022/02/01 04:49:11;;;;;;;23.13;5.10;;;5.50;99.90;;;;;;5070054;23;20150;-93
2022/02/01 04:51:13;;;;;;;19.17;5.60;;;5.60;99.90;;;;;;5070114;23;20196;-93
2022/02/01 04:53:13;;;;;;;19.80;5.03;;;5.50;99.90;;;;;;5094477;23;20172;-94
2022/02/01 04:55:14;;;;;;;23.10;5.47;;;5.30;99.90;;;;;;5070030;23;20236;-94
2022/02/01 04:57:15;;;;;;;25.23;5.07;;;5.30;99.90;;;;;;5070279;23;20188;-92
2022/02/01 04:59:16;;;;;;;24.43;4.30;;;5.40;99.90;;;;;;5094068;23;20144;-93
2022/02/01 05:01:20;;;;;;;20.60;5.30;;;5.40;99.90;;;;;;5070067;23;20158;-92
2022/02/01 05:03:21;;;;;;;16.17;5.07;;;5.20;99.90;;;;;;5069878;23;20529;-93
2022/02/01 05:05:28;;;;;;;26.37;5.53;;;5.20;99.90;;;;;;5094153;23;20223;-94
2022/02/01 05:07:29;;;;;;;30.30;5.00;;;5.10;99.90;;;;;;5070011;23;20146;-95
2022/02/01 05:09:31;;;;;;;25.33;5.53;;;5.00;99.90;;;;;;5094268;23;20184;-94
2022/02/01 05:11:35;;;;;;;38.07;5.53;;;5.10;99.90;;;;;;5093922;23;20153;-93
2022/02/01 05:16:08;;;;;;;20.87;5.17;;;4.90;99.90;;;;;;5093961;23;20197;-93
2022/02/01 05:18:16;;;;;;;21.03;6.00;;;4.80;99.90;;;;;;5069833;23;20221;-94
2022/02/01 05:20:29;;;;;;;25.47;5.60;;;4.90;99.90;;;;;;5069934;23;20153;-94
2022/02/01 05:22:32;;;;;;;21.20;4.90;;;4.90;99.90;;;;;;5069676;23;20177;-93
2022/02/01 05:24:37;;;;;;;20.80;5.40;;;4.80;99.90;;;;;;5070017;23;20158;-93
2022/02/01 05:26:38;;;;;;;22.30;4.93;;;4.80;99.90;;;;;;5070068;23;20157;-94
2022/02/01 05:28:46;;;;;;;22.77;5.53;;;4.80;99.90;;;;;;5094431;23;20180;-93
2022/02/01 05:30:47;;;;;;;18.23;4.83;;;4.60;99.90;;;;;;5069833;23;20156;-93
2022/02/01 05:32:50;;;;;;;27.87;5.13;;;4.70;99.90;;;;;;5069575;23;20361;-93
2022/02/01 05:34:56;;;;;;;13.53;4.00;;;4.90;99.90;;;;;;5094002;23;20157;-93
2022/02/01 05:36:57;;;;;;;29.37;5.13;;;4.80;99.90;;;;;;5069470;23;20192;-93
2022/02/01 05:38:59;;;;;;;30.40;5.33;;;4.60;99.90;;;;;;5069458;23;20615;-95
2022/02/01 05:41:00;;;;;;;28.77;4.87;;;4.60;99.90;;;;;;5069833;23;20220;-94
2022/02/01 05:43:05;;;;;;;18.63;4.90;;;4.60;99.90;;;;;;5069047;23;20177;-94
2022/02/01 05:45:06;;;;;;;16.80;4.57;;;4.60;99.90;;;;;;5069637;23;20217;-94
2022/02/01 05:47:07;;;;;;;21.67;5.80;;;4.70;99.90;;;;;;5094817;23;20173;-94
2022/02/01 05:49:13;;;;;;;26.37;5.50;;;4.60;99.90;;;;;;5069525;23;20164;-94
2022/02/01 05:51:17;;;;;;;20.87;5.47;;;4.60;99.90;;;;;;5069264;23;20177;-93
2022/02/01 05:53:18;;;;;;;20.77;5.20;;;4.60;99.90;;;;;;5069776;23;20180;-93
2022/02/01 05:55:22;;;;;;;24.47;5.40;;;4.60;99.90;;;;;;5069078;23;20181;-95
2022/02/01 05:57:26;;;;;;;20.73;5.53;;;4.60;99.90;;;;;;5069273;23;20154;-95
2022/02/01 05:59:27;;;;;;;28.70;5.37;;;4.60;99.90;;;;;;5069412;23;20588;-94
2022/02/01 06:01:28;;;;;;;19.40;5.63;;;4.70;99.90;;;;;;5093906;23;20153;-94
2022/02/01 06:03:32;;;;;;;30.10;6.00;;;4.60;99.90;;;;;;5069197;23;20169;-95
2022/02/01 06:05:43;;;;;;;27.33;6.77;;;4.60;99.90;;;;;;5093950;23;20192;-95
2022/02/01 06:07:45;;;;;;;19.23;5.77;;;4.60;99.90;;;;;;5069341;23;20204;-94
2022/02/01 06:09:48;;;;;;;27.83;6.00;;;4.60;99.90;;;;;;5069434;23;20157;-93
2022/02/01 06:12:01;;;;;;;19.30;6.10;;;4.60;99.90;;;;;;5070269;23;20604;-94
2022/02/01 06:14:02;;;;;;;17.90;6.40;;;4.70;99.90;;;;;;5093621;23;20530;-96
2022/02/01 06:16:13;;;;;;;23.73;6.73;;;4.80;99.90;;;;;;5069261;23;20149;-95
2022/02/01 06:18:20;;;;;;;25.63;6.23;;;4.90;99.90;;;;;;5093664;23;20208;-95
2022/02/01 06:20:41;;;;;;;25.40;6.80;;;4.90;99.90;;;;;;5069867;23;20151;-94
2022/02/01 06:22:43;;;;;;;18.67;5.37;;;4.90;99.90;;;;;;5093746;23;20571;-93
2022/02/01 06:24:54;;;;;;;20.90;6.37;;;5.00;99.90;;;;;;5069268;23;20577;-94
2022/02/01 06:27:22;;;;;;;27.53;6.87;;;5.10;99.90;;;;;;5069362;23;20153;-94
2022/02/01 06:29:28;;;;;;;21.33;6.43;;;5.20;99.90;;;;;;5069258;23;20172;-95
2022/02/01 06:32:17;;;;;;;;;;;;;;;;;;;;;
2022/02/01 06:37:10;;;;;;;18.67;6.83;;;5.20;99.90;;;;;;5091038;23;20152;-94
2022/02/01 06:39:41;;;;;;;;;;;;;;;;;;;;;
2022/02/01 06:41:44;;;;;;;21.10;7.80;;;5.30;99.90;;;;;;5093919;23;20635;-95
2022/02/01 06:46:53;;;;;;;25.80;7.63;;;5.30;99.90;;;;;;5089247;23;20168;-95
2022/02/01 06:48:54;;;;;;;21.77;7.47;;;5.20;99.90;;;;;;5045102;23;20182;-94
2022/02/01 06:51:00;;;;;;;21.47;7.00;;;5.10;99.90;;;;;;5045419;23;20169;-96
2022/02/01 06:53:32;;;;;;;20.00;7.30;;;5.00;99.90;;;;;;5045168;23;20178;-95
2022/02/01 06:55:59;;;;;;;24.37;7.93;;;5.10;99.90;;;;;;5044950;23;20187;-94
2022/02/01 06:58:21;;;;;;;21.70;7.50;;;5.10;99.90;;;;;;5046915;23;20470;-94
2022/02/01 07:01:08;;;;;;;17.77;7.60;;;5.10;99.90;;;;;;5045416;23;20210;-94
2022/02/01 07:06:34;;;;;;;20.43;8.30;;;5.20;99.90;;;;;;4927117;24;20197;-95
2022/02/01 07:23:22;;;;;;;;;;;;;;;;;;;;;
2022/02/01 07:29:55;;;;;;;23.77;9.17;;;5.60;99.90;;;;;;4842826;24;20165;-96
2022/02/01 07:40:07;;;;;;;;;;;;;;;;;;;;;
2022/02/01 09:51:57;;;;;;;;;;;;;;;;;;;;;
2022/02/01 10:23:49;;;;;;;19.83;10.07;;;7.10;99.90;;;;;;4590307;25;20238;-96
2022/02/01 10:26:37;;;;;;;;;;;;;;;;;;;;;
2022/02/01 10:39:07;;;;;;;19.60;10.30;;;7.20;99.90;;;;;;4707738;25;20172;-95
2022/02/01 10:42:44;;;;;;;;;;;;;;;;;;;;;
2022/02/01 10:53:45;;;;;;;17.20;8.37;;;7.70;99.90;;;;;;4904836;24;20177;-95
2022/02/01 11:04:55;;;;;;;17.47;8.33;;;7.90;99.90;;;;;;5089266;23;20228;-94
2022/02/01 11:07:34;;;;;;;13.60;7.07;;;7.90;99.90;;;;;;5090059;23;20635;-94
2022/02/01 11:24:23;;;;;;;10.67;4.87;;;7.90;99.90;;;;;;4930893;23;20185;-95
2022/02/01 11:30:48;;;;;;;8.70;4.63;;;8.00;99.90;;;;;;4990467;23;20159;-94
2022/02/01 11:33:32;;;;;;;;;;;;;;;;;;;;;
2022/02/01 11:36:19;;;;;;;13.43;4.17;;;8.10;99.90;;;;;;5067783;23;20491;-94
2022/02/01 11:39:12;;;;;;;15.03;4.90;;;8.20;99.90;;;;;;5069055;23;20160;-95
2022/02/01 11:42:10;;;;;;;;;;;;;;;;;;;;;
2022/02/01 11:45:21;;;;;;;10.27;4.23;;;8.30;99.90;;;;;;5070264;23;20454;-95
2022/02/01 11:51:33;;;;;;;12.25;4.07;;;8.60;99.90;;;;;;4986288;23;20166;-95
2022/02/01 11:54:21;;;;;;;;;;;;;;;;;;;;;
2022/02/01 12:03:44;;;;;;;17.77;4.53;;;9.00;99.90;;;;;;4957716;24;20245;-96
2022/02/01 12:09:40;;;;;;;13.05;4.07;;;9.30;99.90;;;;;;4931257;24;20168;-96
2022/02/01 12:12:24;;;;;;;16.90;4.10;;;9.30;99.90;;;;;;4882460;24;20162;-95
2022/02/01 12:15:30;;;;;;;;;;;;;;;;;;;;;
2022/02/01 12:22:05;;;;;;;12.20;4.17;;;9.10;99.90;;;;;;4889906;24;20175;-96
2022/02/01 12:43:16;;;;;;;17.50;4.30;;;9.40;99.90;;;;;;4924365;24;20190;-94
2022/02/01 12:46:17;;;;;;;16.75;4.07;;;9.60;99.90;;;;;;4867016;24;20160;-95
2022/02/01 12:48:51;;;;;;;15.15;3.63;;;9.70;99.90;;;;;;4906788;24;20189;-95
2022/02/01 12:51:18;;;;;;;18.55;3.83;;;9.70;99.90;;;;;;4937015;24;20261;-94
2022/02/01 12:54:01;;;;;;;16.73;3.40;;;9.70;99.90;;;;;;4945167;23;20219;-92
2022/02/01 12:56:37;;;;;;;20.25;4.25;;;9.70;99.90;;;;;;4950944;23;20262;-96
2022/02/01 13:00:14;;;;;;;;;;;;;;;;;;;;;
2022/02/01 13:02:55;;;;;;;18.73;3.83;;;9.80;99.90;;;;;;5060820;23;20512;-94
2022/02/01 13:05:16;;;;;;;17.80;3.70;;;9.70;99.90;;;;;;5009854;23;20163;-94
2022/02/01 13:15:14;;;;;;;17.70;3.90;;;10.20;99.90;;;;;;5065306;23;20201;-94
2022/02/01 13:20:04;;;;;;;18.27;4.18;;;10.10;99.90;;;;;;5061555;23;20198;-95
2022/02/01 13:20:25;;;;;;;15.43;4.10;;;10.20;99.90;;;;;;5058517;23;20209;-95
2022/02/01 13:22:50;;;;;;;17.42;4.28;;;10.10;99.90;;;;;;5060304;23;20162;-94
2022/02/01 13:25:07;;;;;;;15.93;4.15;;;10.20;99.90;;;;;;5056407;23;20150;-93
2022/02/01 13:27:24;;;;;;;19.23;3.70;;;10.30;99.90;;;;;;5058828;23;20158;-95
2022/02/01 13:30:05;;;;;;;14.55;3.55;;;10.50;99.90;;;;;;5080025;23;20169;-95
2022/02/01 13:32:29;;;;;;;11.30;3.42;;;10.60;99.90;;;;;;5051385;23;20197;-96
2022/02/01 13:35:07;;;;;;;18.83;5.30;;;10.60;99.90;;;;;;5058814;23;20482;-95
2022/02/01 13:37:21;;;;;;;14.25;5.45;;;10.60;99.90;;;;;;5053327;23;20205;-94
2022/02/01 13:40:23;;;;;;;13.15;3.17;;;10.50;99.90;;;;;;5079790;23;20160;-96
2022/02/01 13:42:48;;;;;;;14.88;4.00;;;10.60;99.90;;;;;;5082037;23;20209;-93
2022/02/01 13:45:40;;;;;;;26.27;15.15;;;10.70;99.90;;;;;;5056755;23;20185;-93
2022/02/01 13:47:58;;;;;;;18.17;4.70;;;10.60;99.90;;;;;;5062575;23;20164;-95
2022/02/01 13:50:55;;;;;;;8.40;2.63;;;10.50;99.90;;;;;;5080529;23;20160;-95
2022/02/01 13:53:13;;;;;;;13.90;6.57;;;10.60;99.90;;;;;;5009594;23;20173;-95
2022/02/01 13:55:37;;;;;;;14.23;3.40;;;10.60;99.90;;;;;;5055680;23;20508;-94
2022/02/01 13:57:50;;;;;;;11.45;3.10;;;10.50;99.90;;;;;;5051506;23;20662;-94
2022/02/01 14:00:12;;;;;;;19.00;6.40;;;10.60;99.90;;;;;;5070062;23;20511;-94
2022/02/01 14:02:25;;;;;;;17.15;2.85;;;10.80;99.90;;;;;;5046735;23;20213;-96
2022/02/01 14:04:32;;;;;;;25.83;14.95;;;10.90;99.90;;;;;;5047636;23;20556;-93
2022/02/01 14:23:08;;;;;;;21.85;10.18;;;11.00;99.90;;;;;;5075912;23;20157;-95
2022/02/01 14:27:46;;;;;;;9.75;4.18;;;11.00;99.90;;;;;;5077313;23;20196;-93
2022/02/01 14:36:14;;;;;;;12.38;3.70;;;11.00;99.90;;;;;;5075006;23;20205;-94
2022/02/01 14:45:11;;;;;;;14.07;3.92;;;11.50;99.90;;;;;;5081056;23;20667;-93
2022/02/01 14:47:30;;;;;;;19.13;4.60;;;11.70;99.90;;;;;;5054449;23;20150;-93
2022/02/01 14:49:32;;;;;;;12.40;3.78;;;11.50;99.90;;;;;;5085503;23;20161;-94
2022/02/01 14:51:41;;;;;;;9.85;3.90;;;11.40;99.90;;;;;;5061163;23;20154;-95
2022/02/01 14:53:44;;;;;;;17.85;8.13;;;11.40;99.90;;;;;;5061371;23;20258;-93
2022/02/01 14:55:52;;;;;;;11.85;3.95;;;11.30;99.90;;;;;;5058312;23;20205;-94
2022/02/01 15:06:03;;;;;;;14.07;2.95;;;11.00;99.90;;;;;;5084161;23;20173;-93
2022/02/01 15:12:42;;;;;;;6.30;2.17;;;10.90;99.90;;;;;;5084956;23;20157;-94
2022/02/01 15:14:43;;;;;;;9.80;3.00;;;10.80;99.90;;;;;;5062126;23;20165;-93
2022/02/01 15:16:46;;;;;;;13.27;3.42;;;10.80;99.90;;;;;;5061220;23;20154;-95
2022/02/01 15:18:48;;;;;;;18.50;3.42;;;10.90;99.90;;;;;;5062606;23;20142;-93
2022/02/01 15:20:51;;;;;;;9.18;2.90;;;10.80;99.90;;;;;;5086678;23;20154;-94
2022/02/01 15:22:57;;;;;;;12.18;3.40;;;10.70;99.90;;;;;;5059417;23;20193;-93
2022/02/01 15:25:00;;;;;;;13.93;2.90;;;10.70;99.90;;;;;;5065219;23;20168;-93
2022/02/01 15:27:01;;;;;;;13.73;2.78;;;10.90;99.90;;;;;;5086822;23;20193;-93
2022/02/01 15:29:04;;;;;;;13.57;3.00;;;10.90;99.90;;;;;;5061347;23;20165;-93
2022/02/01 15:31:05;;;;;;;25.33;4.63;;;11.10;99.90;;;;;;5034579;23;20154;-93
2022/02/01 15:33:13;;;;;;;11.45;3.22;;;11.10;99.90;;;;;;5060593;23;20162;-93
2022/02/01 15:35:15;;;;;;;14.07;3.17;;;11.20;99.90;;;;;;5059776;23;20193;-94
2022/02/01 15:37:21;;;;;;;11.15;3.10;;;11.40;99.90;;;;;;5083223;23;20138;-93
2022/02/01 15:57:49;;;;;;;14.25;3.58;;;11.30;99.90;;;;;;5085171;23;20134;-95
2022/02/01 16:00:18;;;;;;;15.27;3.25;;;11.30;99.90;;;;;;5083404;23;20185;-93
2022/02/01 16:02:48;;;;;;;11.07;2.83;;;11.30;99.90;;;;;;5064489;23;20181;-93
2022/02/01 16:05:01;;;;;;;15.80;3.50;;;11.30;99.90;;;;;;5056821;23;20472;-94
2022/02/01 16:07:12;;;;;;;15.25;3.40;;;11.30;99.90;;;;;;5060017;23;20189;-94
2022/02/01 16:09:23;;;;;;;16.80;3.80;;;11.20;99.90;;;;;;5087551;23;20146;-94
2022/02/01 16:11:32;;;;;;;24.05;6.22;;;11.20;99.90;;;;;;5088670;23;20161;-95
2022/02/01 16:15:40;;;;;;;17.52;4.55;;;11.10;99.90;;;;;;5084062;23;20240;-94
2022/02/01 16:17:44;;;;;;;56.22;26.33;;;11.10;99.90;;;;;;5061310;23;20170;-95
2022/02/01 16:19:51;;;;;;;100.05;50.38;;;11.00;99.90;;;;;;5086182;23;20200;-94
2022/02/01 16:21:55;;;;;;;11.75;4.10;;;11.00;99.90;;;;;;5092224;23;20165;-94
2022/02/01 16:24:01;;;;;;;28.30;9.32;;;10.90;99.90;;;;;;5084013;23;20180;-94
2022/02/01 16:26:04;;;;;;;9.85;4.43;;;10.90;99.90;;;;;;5083366;23;20241;-95
2022/02/01 16:28:05;;;;;;;30.95;18.38;;;11.10;99.90;;;;;;5087879;23;20141;-94
2022/02/01 16:30:29;;;;;;;11.05;5.13;;;11.10;99.90;;;;;;5062566;23;20202;-94
2022/02/01 16:32:39;;;;;;;15.23;3.95;;;11.10;99.90;;;;;;5064763;23;20214;-94
2022/02/01 16:34:42;;;;;;;14.73;3.67;;;11.30;99.90;;;;;;5064529;23;20153;-93
2022/02/01 16:37:07;;;;;;;18.55;4.10;;;11.40;99.90;;;;;;5061970;23;20194;-93
2022/02/01 16:39:12;;;;;;;14.57;4.10;;;11.40;99.90;;;;;;5037002;23;20184;-94
2022/02/01 16:41:21;;;;;;;18.42;4.40;;;11.30;99.90;;;;;;5042193;23;20166;-94
2022/02/01 16:43:36;;;;;;;11.50;3.75;;;11.10;99.90;;;;;;5086116;23;20192;-93
2022/02/01 16:45:38;;;;;;;21.42;5.00;;;11.00;99.90;;;;;;5085577;23;20642;-95
2022/02/01 16:47:41;;;;;;;16.65;7.07;;;11.10;99.90;;;;;;5064568;23;20166;-95
2022/02/01 16:49:45;;;;;;;12.77;5.03;;;11.10;99.90;;;;;;5063532;23;20158;-95
2022/02/01 16:51:48;;;;;;;20.30;4.80;;;11.10;99.90;;;;;;5060025;23;20162;-94
2022/02/01 16:54:18;;;;;;;13.30;3.75;;;11.20;99.90;;;;;;5113141;23;20132;-94
2022/02/01 16:58:50;;;;;;;13.20;3.97;;;11.20;99.90;;;;;;5084747;23;20134;-94
2022/02/01 17:00:56;;;;;;;20.73;8.38;;;11.10;99.90;;;;;;5085291;23;20148;-93
2022/02/01 17:03:03;;;;;;;14.15;4.85;;;11.00;99.90;;;;;;5059267;23;20158;-93
2022/02/01 17:05:10;;;;;;;14.68;4.55;;;11.00;99.90;;;;;;5063829;23;20146;-95
2022/02/01 17:07:16;;;;;;;12.65;3.67;;;11.10;99.90;;;;;;5083476;23;20141;-94
2022/02/01 17:09:52;;;;;;;10.60;4.40;;;11.20;99.90;;;;;;5083948;23;20148;-92
2022/02/01 17:12:08;;;;;;;22.80;3.60;;;11.40;99.90;;;;;;5064134;23;20149;-93
2022/02/01 17:23:37;;;;;;;8.48;1.67;;;11.20;99.90;;;;;;5083957;23;20174;-94
2022/02/01 17:25:46;;;;;;;10.63;1.70;;;11.40;99.90;;;;;;5072585;23;20149;-94
2022/02/01 17:27:50;;;;;;;14.40;1.50;;;11.30;99.90;;;;;;5072294;23;20157;-93
2022/02/01 17:29:51;;;;;;;9.95;1.80;;;11.30;99.90;;;;;;5071918;23;20179;-94
2022/02/01 17:31:56;;;;;;;4.32;1.65;;;11.40;99.90;;;;;;5071396;23;20154;-94
2022/02/01 17:34:25;;;;;;;13.82;2.20;;;11.30;99.90;;;;;;5072444;23;20233;-95
2022/02/01 17:36:37;;;;;;;7.47;1.42;;;11.30;99.90;;;;;;5073701;23;20205;-95
2022/02/01 17:38:38;;;;;;;6.20;1.20;;;11.40;99.90;;;;;;5073988;23;20145;-93
2022/02/01 17:40:39;;;;;;;3.30;0.85;;;11.50;99.90;;;;;;5048299;23;20155;-94
2022/02/01 17:43:09;;;;;;;10.52;2.03;;;11.40;99.90;;;;;;5048664;23;20170;-96
2022/02/01 17:45:10;;;;;;;9.55;1.45;;;11.30;99.90;;;;;;5042835;23;20158;-92
2022/02/01 17:47:18;;;;;;;8.07;1.50;;;11.20;99.90;;;;;;5048121;23;20218;-94
2022/02/01 17:49:32;;;;;;;10.10;1.60;;;11.20;99.90;;;;;;5072902;23;20149;-95
2022/02/01 17:51:58;;;;;;;8.02;1.50;;;11.10;99.90;;;;;;5047355;23;20169;-94
2022/02/01 17:54:17;;;;;;;5.90;1.23;;;11.20;99.90;;;;;;5096618;23;20532;-94
2022/02/01 17:56:20;;;;;;;7.60;1.48;;;11.10;99.90;;;;;;5046919;23;20682;-94
2022/02/01 17:58:21;;;;;;;7.03;1.95;;;11.00;99.90;;;;;;5081544;23;20254;-95
2022/02/01 18:00:21;;;;;;;6.65;1.40;;;11.00;99.90;;;;;;5070031;23;20492;-95
2022/02/01 18:02:23;;;;;;;9.82;1.60;;;11.00;99.90;;;;;;5045448;23;20174;-94
2022/02/01 18:04:27;;;;;;;9.63;2.05;;;11.10;99.90;;;;;;5045222;23;20165;-94
2022/02/01 18:06:30;;;;;;;6.07;1.15;;;11.00;99.90;;;;;;5046929;23;20161;-95
2022/02/01 18:08:38;;;;;;;7.72;1.55;;;11.10;99.90;;;;;;5069558;23;20611;-94
2022/02/01 18:10:39;;;;;;;7.93;1.35;;;11.00;99.90;;;;;;5069494;23;20165;-95
2022/02/01 18:13:00;;;;;;;7.25;1.67;;;10.90;99.90;;;;;;5044969;23;20174;-95
2022/02/01 18:15:01;;;;;;;6.97;1.50;;;10.90;99.90;;;;;;5069291;23;20596;-94
2022/02/01 18:17:03;;;;;;;11.00;1.73;;;10.70;99.90;;;;;;5069285;23;20185;-93
2022/02/01 18:19:05;;;;;;;5.85;1.30;;;10.80;99.90;;;;;;5069678;23;20153;-94
2022/02/01 18:21:14;;;;;;;7.28;1.67;;;10.80;99.90;;;;;;5045147;23;20154;-94
2022/02/01 18:23:20;;;;;;;9.77;1.80;;;10.80;99.90;;;;;;5069117;23;20178;-94
2022/02/01 18:25:21;;;;;;;7.80;1.70;;;10.70;99.90;;;;;;5044831;23;20177;-93
2022/02/01 18:27:23;;;;;;;7.45;2.03;;;10.60;99.90;;;;;;5069508;23;20157;-94
2022/02/01 18:29:31;;;;;;;9.32;2.65;;;10.70;99.90;;;;;;5045518;23;20181;-93
2022/02/01 18:31:31;;;;;;;8.25;1.63;;;10.70;99.90;;;;;;5068962;23;20149;-94
2022/02/01 18:33:37;;;;;;;13.90;3.15;;;10.70;99.90;;;;;;5044579;23;20170;-93
2022/02/01 18:35:44;;;;;;;13.90;3.47;;;10.80;99.90;;;;;;5044776;23;20194;-95
2022/02/01 18:37:51;;;;;;;54.50;25.23;;;10.80;99.90;;;;;;5044983;23;20158;-93
2022/02/01 18:39:59;;;;;;;8.27;1.60;;;10.80;99.90;;;;;;5069175;23;20153;-93
2022/02/01 18:42:02;;;;;;;38.22;12.95;;;10.70;99.90;;;;;;5069206;23;20153;-93
2022/02/01 18:44:09;;;;;;;14.70;2.72;;;10.70;99.90;;;;;;5044898;23;20146;-94